Time;durP1;ratioP1;P1;durP2;ratioP2;P2;SDS_P1;SDS_P2;PMS_P1;PMS_P2;Temp;Humidity;BMP_temperature;BMP_pressure;BME280_temperature;BME280_humidity;BME280_pressure;Samples;Min_cycle;Max_cycle;Signal;HPM_P1;HPM_P2
2022/06/12 00:01:26;;;;;;;7.90;5.47;;;;;;;15.78;100.00;94722.47;5077410;28;20048;-71
2022/06/12 00:03:54;;;;;;;12.57;5.88;;;;;;;15.76;100.00;94719.31;5064401;28;20028;-71
2022/06/12 00:06:22;;;;;;;14.38;6.13;;;;;;;15.73;100.00;94714.56;5078039;28;20185;-71
2022/06/12 00:08:49;;;;;;;11.68;5.30;;;;;;;15.73;100.00;94725.06;5078832;28;20039;-71
2022/06/12 00:11:25;;;;;;;9.35;5.07;;;;;;;15.71;100.00;94721.91;5076588;28;20040;-70
2022/06/12 00:13:57;;;;;;;8.50;5.65;;;;;;;15.65;100.00;94717.75;5064302;28;20047;-69
2022/06/12 00:16:24;;;;;;;8.88;6.00;;;;;;;15.70;100.00;94715.13;5075126;28;20047;-69
2022/06/12 00:18:51;;;;;;;8.65;6.35;;;;;;;15.76;100.00;94703.56;5073293;28;20541;-70
2022/06/12 00:21:18;;;;;;;9.23;5.80;;;;;;;15.75;100.00;94696.72;5058054;28;20047;-69
2022/06/12 00:23:51;;;;;;;9.10;5.80;;;;;;;15.77;100.00;94705.16;5080987;28;20051;-69
2022/06/12 00:26:31;;;;;;;11.35;7.10;;;;;;;15.70;100.00;94694.09;5074619;28;20048;-70
2022/06/12 00:29:00;;;;;;;13.80;6.63;;;;;;;15.79;100.00;94697.78;5075781;28;20047;-70
2022/06/12 00:31:28;;;;;;;11.43;5.93;;;;;;;15.69;100.00;94687.28;5075508;28;20075;-69
2022/06/12 00:33:55;;;;;;;13.07;6.88;;;;;;;15.72;100.00;94689.38;5074051;28;20135;-70
2022/06/12 00:36:22;;;;;;;9.10;6.25;;;;;;;15.72;100.00;94686.75;5072033;28;20775;-70
2022/06/12 00:38:50;;;;;;;10.38;6.13;;;;;;;15.71;100.00;94687.78;5063629;28;20053;-70
2022/06/12 00:41:17;;;;;;;11.93;7.10;;;;;;;15.77;100.00;94699.91;5080003;28;20443;-70
2022/06/12 00:43:44;;;;;;;8.98;6.15;;;;;;;15.73;100.00;94698.81;5062904;28;20086;-70
2022/06/12 00:46:41;;;;;;;9.93;6.97;;;;;;;15.70;100.00;94699.38;5083189;28;20036;-69
2022/06/12 00:49:13;;;;;;;10.82;6.75;;;;;;;15.71;100.00;94690.41;5077439;28;20051;-70
2022/06/12 00:51:40;;;;;;;10.48;7.25;;;;;;;15.74;100.00;94689.91;5080836;28;20036;-69
2022/06/12 00:54:10;;;;;;;17.45;8.30;;;;;;;15.75;100.00;94688.84;5079191;28;20047;-70
2022/06/12 00:56:42;;;;;;;11.18;7.60;;;;;;;15.71;100.00;94690.41;5063561;28;20040;-69
2022/06/12 00:59:17;;;;;;;15.48;7.65;;;;;;;15.72;100.00;94684.13;5075268;28;20032;-70
2022/06/12 01:01:51;;;;;;;11.55;7.85;;;;;;;15.64;100.00;94674.16;5080548;28;20046;-71
2022/06/12 01:07:09;;;;;;;10.57;7.88;;;;;;;15.66;100.00;94674.66;5064103;28;20135;-71
2022/06/12 01:09:40;;;;;;;9.93;7.18;;;;;;;15.63;100.00;94668.13;5078430;28;20625;-71
2022/06/12 01:12:18;;;;;;;11.13;7.15;;;;;;;15.66;100.00;94667.59;5081236;28;20093;-71
2022/06/12 01:14:53;;;;;;;11.45;7.78;;;;;;;15.61;100.00;94664.97;5075916;28;20137;-71
2022/06/12 01:17:22;;;;;;;10.73;7.70;;;;;;;15.56;100.00;94661.59;5079941;28;20834;-71
2022/06/12 01:19:59;;;;;;;9.20;6.55;;;;;;;15.57;100.00;94663.16;5075844;28;20048;-72
2022/06/12 01:22:59;;;;;;;12.02;8.75;;;;;;;15.54;100.00;94658.41;5083280;28;20048;-71
2022/06/12 01:25:50;;;;;;;10.90;7.80;;;;;;;15.52;100.00;94657.91;5077027;28;20048;-70
2022/06/12 01:28:32;;;;;;;10.90;7.90;;;;;;;15.50;100.00;94663.41;5066840;28;20046;-71
2022/06/12 01:31:26;;;;;;;13.88;8.75;;;;;;;15.52;100.00;94671.84;5077898;28;20036;-71
2022/06/12 01:34:15;;;;;;;17.75;8.65;;;;;;;15.55;100.00;94665.25;5079602;28;20039;-71
2022/06/12 01:37:13;;;;;;;12.23;9.00;;;;;;;15.48;100.00;94647.94;5080687;28;20074;-71
2022/06/12 01:39:45;;;;;;;13.65;8.50;;;;;;;15.54;100.00;94664.47;5082714;28;20120;-71
2022/06/12 01:42:33;;;;;;;19.42;9.55;;;;;;;15.52;100.00;94656.09;5076392;28;20040;-71
2022/06/12 01:45:18;;;;;;;18.75;11.20;;;;;;;15.47;100.00;94670.00;5078577;28;20032;-71
2022/06/12 01:47:58;;;;;;;14.95;10.18;;;;;;;15.47;100.00;94662.13;5074435;28;20040;-71
2022/06/12 01:50:43;;;;;;;19.00;10.45;;;;;;;15.48;100.00;94663.69;5081338;28;20778;-70
2022/06/12 01:53:10;;;;;;;13.60;10.32;;;;;;;15.43;100.00;94663.72;5058803;28;20067;-71
2022/06/12 01:55:40;;;;;;;15.63;9.93;;;;;;;15.44;100.00;94660.00;5067620;28;20032;-71
2022/06/12 01:58:26;;;;;;;14.80;10.43;;;;;;;15.45;100.00;94661.59;5073943;28;20040;-71
2022/06/12 02:01:03;;;;;;;16.05;9.95;;;;;;;15.47;100.00;94656.88;5063096;28;20044;-72
2022/06/12 02:04:01;;;;;;;19.10;10.73;;;;;;;15.45;100.00;94653.72;5078567;28;20052;-71
2022/06/12 02:06:36;;;;;;;17.65;10.57;;;;;;;15.48;100.00;94658.44;5063766;28;20750;-71
2022/06/12 02:09:14;;;;;;;19.08;10.20;;;;;;;15.39;100.00;94657.41;5078500;28;20044;-71
2022/06/12 02:14:44;;;;;;;14.57;10.07;;;;;;;15.42;100.00;94662.13;5080648;28;20031;-71
2022/06/12 02:17:17;;;;;;;16.40;9.52;;;;;;;15.35;100.00;94666.84;5082455;28;20043;-71
2022/06/12 02:19:46;;;;;;;28.90;10.63;;;;;;;15.34;100.00;94654.81;5077567;28;20114;-71
2022/06/12 02:22:13;;;;;;;12.82;9.60;;;;;;;15.34;100.00;94657.44;5081249;28;20564;-71
2022/06/12 02:24:48;;;;;;;12.30;9.20;;;;;;;15.30;100.00;94658.97;5078934;28;20058;-71
2022/06/12 02:27:22;;;;;;;11.80;8.20;;;;;;;15.28;100.00;94663.72;5065132;28;20044;-71
2022/06/12 02:29:55;;;;;;;15.20;10.23;;;;;;;15.27;100.00;94670.03;5081387;28;20051;-71
2022/06/12 02:32:30;;;;;;;14.23;8.85;;;;;;;15.29;100.00;94662.69;5086312;28;20087;-71
2022/06/12 02:35:02;;;;;;;15.15;9.65;;;;;;;15.35;100.00;94666.06;5084033;28;20265;-71
2022/06/12 02:37:37;;;;;;;15.43;9.90;;;;;;;15.36;100.00;94657.94;5063811;28;20048;-71
2022/06/12 02:40:17;;;;;;;14.52;9.77;;;;;;;15.31;100.00;94655.31;5102525;28;20058;-71
2022/06/12 02:42:46;;;;;;;18.55;10.30;;;;;;;15.38;100.00;94661.09;5113553;28;20044;-71
2022/06/12 02:45:41;;;;;;;13.63;9.88;;;;;;;15.39;100.00;94664.50;5112865;28;20040;-71
2022/06/12 02:48:08;;;;;;;15.57;10.38;;;;;;;15.39;100.00;94667.88;5098559;28;20040;-71
2022/06/12 02:50:44;;;;;;;14.93;9.90;;;;;;;15.42;100.00;94671.84;5096328;28;20047;-71
2022/06/12 02:53:23;;;;;;;16.42;11.48;;;;;;;15.42;100.00;94675.25;5086944;28;20521;-71
2022/06/12 02:55:59;;;;;;;15.75;10.05;;;;;;;15.44;100.00;94675.75;5080409;28;20825;-71
2022/06/12 02:58:46;;;;;;;16.50;11.60;;;;;;;15.47;100.00;94677.88;5077436;28;20488;-71
2022/06/12 03:01:20;;;;;;;15.32;10.90;;;;;;;15.51;100.00;94674.72;5086842;28;20044;-70
2022/06/12 03:04:16;;;;;;;14.18;9.95;;;;;;;15.57;100.00;94668.41;5081724;28;20055;-71
2022/06/12 03:06:43;;;;;;;14.63;10.43;;;;;;;15.57;100.00;94679.66;5078840;28;20627;-71
2022/06/12 03:09:10;;;;;;;14.10;10.25;;;;;;;15.59;100.00;94671.53;5080058;28;20535;-71
2022/06/12 03:11:41;;;;;;;14.95;10.73;;;;;;;15.56;100.00;94683.38;5077120;28;20115;-71
2022/06/12 03:14:14;;;;;;;17.40;10.38;;;;;;;15.60;100.00;94688.88;5080109;28;20044;-71
2022/06/12 03:16:44;;;;;;;19.52;10.20;;;;;;;15.62;100.00;94671.00;5077760;28;20681;-72
2022/06/12 03:19:11;;;;;;;15.35;10.82;;;;;;;15.69;100.00;94676.78;5077548;28;20047;-71
2022/06/12 03:21:47;;;;;;;16.00;10.38;;;;;;;15.72;100.00;94681.50;5076615;28;20141;-71
2022/06/12 03:24:21;;;;;;;19.02;11.32;;;;;;;15.74;100.00;94683.88;5088113;27;20197;-71
2022/06/12 03:27:07;;;;;;;17.60;11.10;;;;;;;15.73;100.00;94683.06;5076628;28;20032;-71
2022/06/12 03:29:37;;;;;;;14.00;10.75;;;;;;;15.75;100.00;94674.94;5076986;28;20086;-71
2022/06/12 03:32:12;;;;;;;13.70;9.50;;;;;;;15.75;100.00;94673.09;5077796;28;20036;-71
2022/06/12 03:35:02;;;;;;;14.93;10.50;;;;;;;15.71;100.00;94666.78;5076250;28;20035;-71
2022/06/12 03:37:34;;;;;;;18.10;9.63;;;;;;;15.64;100.00;94655.78;5077050;28;20047;-71
2022/06/12 03:40:16;;;;;;;13.65;9.93;;;;;;;15.69;100.00;94663.66;5074957;28;20039;-71
2022/06/12 03:42:57;;;;;;;15.48;9.85;;;;;;;15.65;100.00;94665.25;5079042;28;20044;-71
2022/06/12 03:45:31;;;;;;;11.80;9.27;;;;;;;15.67;100.00;94658.66;5075399;28;20040;-71
2022/06/12 03:48:07;;;;;;;16.85;10.23;;;;;;;15.76;100.00;94666.81;5063096;28;20779;-71
2022/06/12 03:50:47;;;;;;;15.38;10.65;;;;;;;15.74;100.00;94668.09;5081152;28;20067;-71
2022/06/12 03:53:36;;;;;;;13.95;10.15;;;;;;;15.72;100.00;94665.75;5064004;28;20036;-70
2022/06/12 03:59:20;;;;;;;13.75;10.10;;;;;;;15.78;100.00;94675.19;5076434;28;20560;-71
2022/06/12 04:01:48;;;;;;;12.60;9.30;;;;;;;15.74;100.00;94668.91;5081505;28;20032;-72
2022/06/12 04:04:18;;;;;;;12.82;10.18;;;;;;;15.83;100.00;94672.56;5079215;28;20043;-71
2022/06/12 04:06:47;;;;;;;17.75;10.00;;;;;;;15.82;100.00;94670.97;5073905;28;20068;-72
2022/06/12 04:09:21;;;;;;;13.82;9.68;;;;;;;15.81;100.00;94674.66;5065068;28;20460;-72
2022/06/12 04:11:57;;;;;;;10.73;8.98;;;;;;;15.82;100.00;94676.22;5083195;28;20050;-72
2022/06/12 04:14:30;;;;;;;18.00;10.00;;;;;;;15.77;100.00;94678.91;5082278;28;20737;-72
2022/06/12 04:17:00;;;;;;;18.00;11.07;;;;;;;15.79;100.00;94682.03;5059216;28;20036;-72
2022/06/12 04:19:30;;;;;;;13.05;8.70;;;;;;;15.75;100.00;94691.47;5078632;28;20469;-72
2022/06/12 04:22:12;;;;;;;19.70;9.77;;;;;;;15.75;100.00;94680.97;5083017;28;20036;-72
2022/06/12 04:24:46;;;;;;;12.45;9.18;;;;;;;15.67;100.00;94678.88;5064644;28;20032;-72
2022/06/12 04:27:16;;;;;;;11.82;9.07;;;;;;;15.73;100.00;94680.44;5077040;28;20113;-72
2022/06/12 04:29:57;;;;;;;13.25;9.90;;;;;;;15.69;100.00;94682.03;5086704;28;20035;-72
2022/06/12 04:32:24;;;;;;;13.98;10.30;;;;;;;15.77;100.00;94678.91;5081125;28;20040;-72
2022/06/12 04:34:53;;;;;;;16.08;10.23;;;;;;;15.77;100.00;94676.28;5082845;28;20039;-72
2022/06/12 04:37:27;;;;;;;14.43;9.55;;;;;;;15.78;100.00;94679.66;5085806;28;20028;-69
2022/06/12 04:39:55;;;;;;;13.25;9.60;;;;;;;15.83;100.00;94693.56;5083198;28;20048;-69
2022/06/12 04:42:23;;;;;;;14.18;9.82;;;;;;;15.86;100.00;94693.03;5083581;28;20036;-69
2022/06/12 04:44:51;;;;;;;12.60;10.00;;;;;;;15.92;100.00;94695.63;5081645;28;20052;-69
2022/06/12 04:47:23;;;;;;;13.48;10.23;;;;;;;15.98;100.00;94705.09;5080925;28;20121;-71
2022/06/12 04:49:50;;;;;;;14.73;10.20;;;;;;;16.04;100.00;94709.25;5094318;27;20041;-71
2022/06/12 04:52:17;;;;;;;16.80;10.52;;;;;;;16.09;100.00;94709.25;5081066;28;20044;-71
2022/06/12 04:54:45;;;;;;;14.38;10.85;;;;;;;16.18;100.00;94710.25;5064612;28;20044;-71
2022/06/12 04:57:17;;;;;;;14.15;11.00;;;;;;;16.21;100.00;94709.72;5067409;28;20040;-71
2022/06/12 04:59:46;;;;;;;13.32;10.63;;;;;;;16.22;100.00;94707.88;5079722;28;21515;-71
2022/06/12 05:02:13;;;;;;;12.75;10.00;;;;;;;16.20;100.00;94696.84;5083428;28;20036;-71
2022/06/12 05:04:41;;;;;;;14.93;9.90;;;;;;;16.13;100.00;94691.88;5078175;28;20040;-71
2022/06/12 05:07:11;;;;;;;12.80;9.85;;;;;;;16.15;100.00;94695.06;5086214;28;20032;-71
2022/06/12 05:09:39;;;;;;;11.88;8.32;;;;;;;16.11;100.00;94699.25;5078324;28;20047;-72
2022/06/12 05:12:08;;;;;;;11.73;8.32;;;;;;;16.04;100.00;94709.25;5082409;28;20100;-71
2022/06/12 05:14:36;;;;;;;12.27;9.52;;;;;;;16.04;100.00;94699.56;5064765;28;20044;-72
2022/06/12 05:17:06;;;;;;;8.90;7.70;;;;;;;16.13;100.00;94706.88;5065265;28;20032;-72
2022/06/12 05:19:37;;;;;;;16.30;9.50;;;;;;;16.18;100.00;94715.50;5074492;28;20105;-72
2022/06/12 05:22:07;;;;;;;11.85;9.23;;;;;;;16.25;100.00;94705.50;5064043;28;20517;-72
2022/06/12 05:24:35;;;;;;;15.65;9.90;;;;;;;16.28;100.00;94706.00;5081918;28;20048;-72
2022/06/12 05:27:08;;;;;;;12.18;9.07;;;;;;;16.37;100.00;94712.31;5083126;28;20569;-72
2022/06/12 05:29:38;;;;;;;11.83;9.27;;;;;;;16.31;100.00;94726.50;5078898;28;20158;-72
2022/06/12 05:32:06;;;;;;;14.68;9.27;;;;;;;16.29;100.00;94720.75;5082344;28;20567;-72
2022/06/12 05:34:33;;;;;;;14.23;10.00;;;;;;;16.24;100.00;94730.22;5087656;28;20048;-72
2022/06/12 05:37:01;;;;;;;12.40;9.63;;;;;;;16.26;100.00;94737.84;5079674;28;20032;-71
2022/06/12 05:39:28;;;;;;;12.50;9.65;;;;;;;16.21;100.00;94729.97;5085247;28;20060;-71
2022/06/12 05:41:55;;;;;;;14.07;10.57;;;;;;;16.28;100.00;94748.88;5079766;28;20098;-72
2022/06/12 05:44:23;;;;;;;13.75;10.30;;;;;;;16.31;100.00;94750.16;5086410;28;20036;-71
2022/06/12 05:46:56;;;;;;;14.27;9.85;;;;;;;16.32;100.00;94754.38;5080300;28;20150;-71
2022/06/12 05:49:25;;;;;;;13.88;9.82;;;;;;;16.31;100.00;94752.78;5082660;28;20055;-71
2022/06/12 05:51:51;;;;;;;12.98;10.38;;;;;;;16.35;100.00;94751.19;5079509;28;20056;-71
2022/06/12 05:54:19;;;;;;;14.38;9.80;;;;;;;16.41;100.00;94760.66;5061409;28;20047;-71
2022/06/12 05:56:46;;;;;;;12.48;9.98;;;;;;;16.48;100.00;94745.38;5080473;28;20040;-71
2022/06/12 05:59:13;;;;;;;13.73;10.93;;;;;;;16.55;100.00;94751.13;5084234;28;20041;-71
2022/06/12 06:01:41;;;;;;;16.10;11.32;;;;;;;16.57;100.00;94759.53;5068431;28;20429;-72
2022/06/12 06:04:08;;;;;;;14.63;11.50;;;;;;;16.51;100.00;94760.63;5067214;28;20272;-71
2022/06/12 06:06:58;;;;;;;14.30;11.30;;;;;;;16.65;100.00;94775.78;5067332;28;20826;-70
2022/06/12 06:09:27;;;;;;;12.93;10.02;;;;;;;16.65;100.00;94781.81;5077392;28;20048;-72
2022/06/12 06:11:54;;;;;;;15.40;11.02;;;;;;;16.65;100.00;94786.31;5080042;28;20040;-71
2022/06/12 06:14:21;;;;;;;17.77;11.13;;;;;;;16.68;100.00;94788.41;5071255;28;20036;-75
2022/06/12 06:16:48;;;;;;;16.52;11.55;;;;;;;16.72;100.00;94782.31;5053754;28;20040;-75
2022/06/12 06:19:15;;;;;;;13.57;10.68;;;;;;;16.65;100.00;94765.28;5081474;28;20032;-74
2022/06/12 06:21:43;;;;;;;15.10;11.13;;;;;;;16.74;100.00;94779.44;5080567;28;20299;-75
2022/06/12 06:24:10;;;;;;;17.55;11.63;;;;;;;16.78;100.00;94780.44;5060892;28;20028;-74
2022/06/12 06:26:37;;;;;;;19.95;12.32;;;;;;;16.75;100.00;94788.91;5090285;28;20044;-73
2022/06/12 06:29:05;;;;;;;14.75;11.13;;;;;;;16.74;100.00;94790.72;5078749;28;20141;-74
2022/06/12 06:31:31;;;;;;;19.35;12.70;;;;;;;16.75;100.00;94791.53;5065171;28;20726;-75
2022/06/12 06:33:59;;;;;;;18.25;11.85;;;;;;;16.66;100.00;94785.25;5078783;28;20032;-73
2022/06/12 06:36:26;;;;;;;15.95;12.35;;;;;;;16.71;100.00;94787.84;5048461;28;20044;-74
2022/06/12 06:38:54;;;;;;;16.73;11.27;;;;;;;16.80;100.00;94786.25;5068802;28;20846;-73
2022/06/12 06:41:24;;;;;;;17.60;11.52;;;;;;;16.75;100.00;94770.50;5068490;28;20185;-75
2022/06/12 06:46:38;;;;;;;14.75;11.35;;;;;;;16.95;100.00;94791.44;5080492;28;20054;-75
2022/06/12 06:49:05;;;;;;;16.02;11.98;;;;;;;17.00;100.00;94788.78;5085622;28;20038;-74
2022/06/12 06:51:33;;;;;;;17.95;11.48;;;;;;;17.05;100.00;94800.34;5082821;28;20047;-74
2022/06/12 06:54:00;;;;;;;19.83;13.35;;;;;;;16.99;100.00;94778.53;5080464;28;20028;-74
2022/06/12 06:56:27;;;;;;;17.65;13.38;;;;;;;17.09;100.00;94801.38;5062439;28;20444;-75
2022/06/12 06:58:54;;;;;;;17.58;11.80;;;;;;;17.10;100.00;94789.78;5064310;28;20056;-74
2022/06/12 07:01:21;;;;;;;15.25;11.88;;;;;;;17.20;100.00;94795.00;5047726;28;20786;-74
2022/06/12 07:03:52;;;;;;;19.45;13.43;;;;;;;17.14;100.00;94788.19;5065234;28;20120;-75
2022/06/12 07:06:20;;;;;;;18.00;12.05;;;;;;;17.29;100.00;94795.97;5071654;28;20838;-74
2022/06/12 07:08:53;;;;;;;21.85;14.02;;;;;;;16.86;100.00;94724.69;5076284;28;20040;-74
2022/06/12 07:11:23;;;;;;;26.02;16.45;;;;;;;17.32;100.00;94798.06;5077879;28;20051;-70
2022/06/12 07:13:52;;;;;;;21.45;15.40;;;;;;;17.42;100.00;94791.16;5083110;28;20047;-70
2022/06/12 07:16:21;;;;;;;22.55;13.88;;;;;;;17.36;100.00;94780.66;5078160;28;20803;-70
2022/06/12 07:18:49;;;;;;;25.45;13.52;;;;;;;17.37;100.00;94803.28;5075663;28;20093;-70
2022/06/12 07:21:16;;;;;;;21.33;13.30;;;;;;;17.41;100.00;94802.75;5078232;28;20051;-70
2022/06/12 07:23:44;;;;;;;24.38;12.60;;;;;;;17.39;100.00;94811.72;5079473;28;20047;-68
2022/06/12 07:26:23;;;;;;;20.35;13.13;;;;;;;17.45;100.00;94811.66;5078552;28;20040;-68
2022/06/12 07:28:51;;;;;;;18.27;12.82;;;;;;;17.48;100.00;94813.75;5078138;28;20655;-67
2022/06/12 07:31:18;;;;;;;20.42;14.05;;;;;;;17.53;100.00;94818.97;5083736;28;20043;-68
2022/06/12 07:33:45;;;;;;;18.10;12.45;;;;;;;17.59;100.00;94825.78;5078852;28;20048;-68
2022/06/12 07:36:14;;;;;;;20.33;12.85;;;;;;;17.63;100.00;94832.09;5079475;28;20044;-68
2022/06/12 07:38:42;;;;;;;16.98;12.15;;;;;;;17.55;100.00;94830.03;5076551;28;20032;-68
2022/06/12 07:41:29;;;;;;;17.67;12.07;;;;;;;17.56;100.00;94826.34;5077935;28;20128;-68
2022/06/12 07:43:56;;;;;;;18.05;12.25;;;;;;;17.60;100.00;94827.34;5075941;28;20048;-68
2022/06/12 07:46:23;;;;;;;18.00;12.00;;;;;;;17.71;100.00;94833.34;5065787;28;20055;-67
2022/06/12 07:48:56;;;;;;;19.83;12.82;;;;;;;17.82;100.00;94831.41;5075411;28;20078;-67
2022/06/12 07:51:24;;;;;;;20.30;12.75;;;;;;;17.94;100.00;94837.13;5081920;28;20055;-66
2022/06/12 07:53:53;;;;;;;18.42;12.50;;;;;;;17.87;100.00;94821.63;5082954;28;20075;-66
2022/06/12 07:56:23;;;;;;;14.52;11.90;;;;;;;18.07;100.00;94836.47;5078727;28;20536;-71
2022/06/12 07:58:50;;;;;;;18.85;13.15;;;;;;;18.13;100.00;94835.38;5058372;28;20079;-66
2022/06/12 08:01:21;;;;;;;14.35;11.38;;;;;;;18.14;100.00;94836.94;5076715;28;20166;-65
2022/06/12 08:03:49;;;;;;;18.95;12.30;;;;;;;18.12;100.00;94839.06;5061018;28;20052;-66
2022/06/12 08:06:17;;;;;;;14.30;11.35;;;;;;;18.21;100.00;94838.47;5061249;28;20052;-66
2022/06/12 08:08:44;;;;;;;17.27;13.15;;;;;;;18.22;100.00;94845.31;5077416;28;20047;-66
2022/06/12 08:11:11;;;;;;;16.95;13.10;;;;;;;18.32;100.00;94839.94;5078160;28;20693;-64
2022/06/12 08:13:39;;;;;;;19.30;13.70;;;;;;;18.42;100.00;94839.84;5078206;28;20725;-65
2022/06/12 08:16:06;;;;;;;18.40;12.85;;;;;;;18.44;100.00;94835.06;5076801;28;20414;-65
2022/06/12 08:18:34;;;;;;;14.75;11.82;;;;;;;18.35;100.00;94836.75;5077962;28;20041;-64
2022/06/12 08:21:05;;;;;;;16.05;12.00;;;;;;;18.44;100.00;94837.72;5077161;28;20043;-64
2022/06/12 08:23:38;;;;;;;17.25;12.50;;;;;;;18.46;100.00;94838.22;5079570;28;20109;-65
2022/06/12 08:26:11;;;;;;;21.80;13.15;;;;;;;18.59;100.00;94842.03;5076517;28;20047;-66
2022/06/12 08:28:45;;;;;;;18.88;12.48;;;;;;;18.70;100.00;94842.69;5075684;28;20044;-66
2022/06/12 08:31:19;;;;;;;21.65;13.43;;;;;;;18.79;100.00;94841.00;5078901;28;20048;-65
2022/06/12 08:33:49;;;;;;;18.08;12.52;;;;;;;18.75;100.00;94837.38;5049685;28;20048;-65
2022/06/12 08:36:18;;;;;;;14.27;9.93;;;;;;;18.78;100.00;94839.44;5078530;28;21060;-65
2022/06/12 08:38:47;;;;;;;10.98;8.90;;;;;;;18.77;100.00;94832.59;5074581;28;20044;-65
2022/06/12 08:41:50;;;;;;;13.32;8.85;;;;;;;18.90;100.00;94842.47;5081557;28;20733;-64
2022/06/12 08:44:31;;;;;;;15.32;7.80;;;;;;;18.92;100.00;94842.19;5075669;28;20054;-64
2022/06/12 08:47:14;;;;;;;12.32;8.40;;;;;;;18.85;100.00;94839.94;5079108;28;20060;-64
2022/06/12 08:49:44;;;;;;;10.23;8.30;;;;;;;18.91;100.00;94833.50;5078249;28;20044;-64
2022/06/12 08:52:29;;;;;;;14.50;7.25;;;;;;;18.90;100.00;94842.47;5074905;28;20086;-65
2022/06/12 08:55:27;;;;;;;10.00;8.07;;;;;;;18.91;100.00;94838.78;5079559;28;20036;-64
2022/06/12 08:58:02;;;;;;;9.88;8.05;;;;;;;19.00;100.00;94843.44;5080316;28;20075;-65
2022/06/12 09:00:35;;;;;;;19.98;7.93;;;;;;;19.06;100.00;94842.31;5084230;28;20109;-66
2022/06/12 09:03:11;;;;;;;9.40;7.82;;;;;;;19.14;100.00;94851.44;5082303;28;20105;-66
2022/06/12 09:06:01;;;;;;;10.65;7.72;;;;;;;19.12;100.00;94849.06;5081531;28;20490;-67
2022/06/12 09:08:49;;;;;;;8.80;6.63;;;;;;;19.38;100.00;94856.66;5080512;28;20048;-65
2022/06/12 09:11:19;;;;;;;9.52;5.35;;;;;;;19.44;100.00;94861.56;5081339;28;20563;-66
2022/06/12 09:14:10;;;;;;;6.65;5.68;;;;;;;19.55;100.00;94862.22;5080440;28;20043;-65
2022/06/12 09:17:06;;;;;;;5.93;5.13;;;;;;;19.62;100.00;94870.56;5083591;28;20098;-65
2022/06/12 09:19:40;;;;;;;7.47;4.85;;;;;;;19.74;100.00;94869.38;5081759;28;20973;-66
2022/06/12 09:22:12;;;;;;;7.45;5.07;;;;;;;19.73;100.00;94862.50;5082697;28;20040;-67
2022/06/12 09:25:02;;;;;;;6.82;5.65;;;;;;;19.80;100.00;94868.22;5086723;28;20044;-67
2022/06/12 09:27:53;;;;;;;6.63;5.57;;;;;;;19.89;100.00;94866.50;5083733;28;20047;-67
2022/06/12 09:30:35;;;;;;;7.38;5.25;;;;;;;19.87;100.00;94866.00;5083885;28;20051;-66
2022/06/12 09:33:07;;;;;;;7.93;6.65;;;;;;;19.86;100.00;94867.06;5083913;28;20048;-69
2022/06/12 09:36:08;;;;;;;9.98;7.65;;;;;;;19.83;100.00;94867.66;5086062;28;20051;-65
2022/06/12 09:39:16;;;;;;;11.35;6.97;;;;;;;19.87;100.00;94868.66;5085545;28;20036;-66
2022/06/12 09:41:50;;;;;;;10.02;7.93;;;;;;;19.92;100.00;94871.22;5066336;28;20513;-66
2022/06/12 09:44:19;;;;;;;8.68;6.90;;;;;;;19.97;100.00;94857.91;5085036;28;20046;-66
2022/06/12 09:46:49;;;;;;;14.52;8.05;;;;;;;20.04;100.00;94863.63;5083434;28;20044;-75
2022/06/12 09:49:32;;;;;;;8.45;7.07;;;;;;;20.04;100.00;94866.25;5052020;28;20064;-74
2022/06/12 09:52:29;;;;;;;9.38;7.47;;;;;;;20.05;100.00;94865.16;5083144;28;20082;-73
2022/06/12 09:55:03;;;;;;;10.23;7.05;;;;;;;20.16;100.00;94865.78;5069181;28;20056;-73
2022/06/12 09:57:56;;;;;;;10.88;8.23;;;;;;;20.31;100.00;94872.69;5072320;28;20041;-72
2022/06/12 10:00:36;;;;;;;9.93;6.10;;;;;;;20.37;100.00;94868.09;5065234;28;20044;-73
2022/06/12 10:03:13;;;;;;;8.45;6.18;;;;;;;20.51;100.00;94868.09;5079292;28;20032;-73
2022/06/12 10:05:41;;;;;;;9.57;6.55;;;;;;;20.63;100.00;94868.44;5082853;28;20440;-73
2022/06/12 10:08:13;;;;;;;10.07;6.40;;;;;;;20.47;100.00;94864.47;5043347;28;20051;-72
2022/06/12 10:10:40;;;;;;;8.70;6.75;;;;;;;20.53;100.00;94858.03;5082581;28;20106;-73
2022/06/12 10:13:11;;;;;;;7.88;6.70;;;;;;;20.57;100.00;94854.50;5078133;28;20055;-69
2022/06/12 10:15:43;;;;;;;8.35;6.53;;;;;;;20.58;100.00;94860.56;5062669;28;20050;-67
2022/06/12 10:18:28;;;;;;;8.00;6.93;;;;;;;20.58;100.00;94855.25;5080334;28;20039;-67
2022/06/12 10:21:06;;;;;;;9.30;6.68;;;;;;;20.83;100.00;94861.97;5079002;28;20516;-67
2022/06/12 10:23:33;;;;;;;10.75;8.32;;;;;;;20.72;100.00;94856.09;5076898;28;20473;-67
2022/06/12 10:26:07;;;;;;;11.57;7.72;;;;;;;20.77;100.00;94858.63;5079452;28;20046;-67
2022/06/12 10:28:36;;;;;;;8.95;7.47;;;;;;;20.60;100.00;94855.78;5077113;28;20029;-67
2022/06/12 10:31:10;;;;;;;9.95;6.78;;;;;;;20.74;100.00;94859.25;5077985;28;20039;-66
2022/06/12 10:33:41;;;;;;;8.02;7.15;;;;;;;20.77;100.00;94856.00;5096007;28;20066;-66
2022/06/12 10:36:19;;;;;;;8.02;6.35;;;;;;;20.86;100.00;94852.66;5092963;28;20050;-67
2022/06/12 10:38:46;;;;;;;8.13;6.43;;;;;;;20.80;100.00;94852.00;5060597;28;20221;-69
2022/06/12 10:41:24;;;;;;;8.43;7.53;;;;;;;20.88;100.00;94842.56;5075633;28;20803;-67
2022/06/12 10:43:53;;;;;;;11.80;7.93;;;;;;;20.86;100.00;94844.72;5077951;28;20683;-67
2022/06/12 10:46:24;;;;;;;10.05;7.03;;;;;;;20.97;100.00;94854.81;5077788;28;20130;-67
2022/06/12 10:48:56;;;;;;;10.32;7.32;;;;;;;20.77;100.00;94850.69;5082681;28;20174;-67
2022/06/12 10:51:28;;;;;;;7.70;6.78;;;;;;;21.01;100.00;94852.34;5058937;28;20040;-65
2022/06/12 10:54:18;;;;;;;8.75;7.75;;;;;;;21.41;100.00;94857.88;5082742;28;20076;-78
2022/06/12 10:56:54;;;;;;;8.27;5.88;;;;;;;21.73;100.00;94856.13;5064520;28;20043;-77
2022/06/12 10:59:36;;;;;;;7.07;5.03;;;;;;;21.86;100.00;94857.94;5083549;28;20039;-77
2022/06/12 11:02:06;;;;;;;10.95;6.53;;;;;;;22.19;100.00;94849.72;5077823;28;20046;-78
2022/06/12 11:04:44;;;;;;;7.07;5.70;;;;;;;22.45;100.00;94849.09;5067533;28;20044;-78
2022/06/12 11:07:31;;;;;;;6.03;4.95;;;;;;;22.88;97.66;94856.44;5063564;28;20044;-78
2022/06/12 11:10:07;;;;;;;7.68;5.10;;;;;;;23.39;96.52;94855.00;5093912;27;20120;-78
2022/06/12 11:12:43;;;;;;;6.68;4.05;;;;;;;23.85;94.38;94861.59;5078872;28;20040;-77
2022/06/12 11:15:54;;;;;;;4.50;4.05;;;;;;;24.38;91.33;94866.81;5080059;28;20039;-77
2022/06/12 11:18:36;;;;;;;4.60;3.97;;;;;;;24.72;83.49;94865.16;5061480;28;20526;-78
2022/06/12 11:21:15;;;;;;;4.32;3.50;;;;;;;25.13;78.93;94869.03;5081569;28;20143;-78
2022/06/12 11:24:12;;;;;;;3.88;3.35;;;;;;;25.31;78.09;94862.53;5078622;28;20051;-77
2022/06/12 11:26:58;;;;;;;5.45;3.38;;;;;;;25.49;79.83;94865.84;5083023;28;20044;-74
2022/06/12 11:29:46;;;;;;;3.22;2.85;;;;;;;25.25;73.37;94861.16;5064302;28;20043;-73
2022/06/12 11:32:15;;;;;;;3.88;3.05;;;;;;;24.98;74.85;94873.81;5085909;28;20055;-74
2022/06/12 11:35:18;;;;;;;4.68;3.40;;;;;;;25.04;76.41;94868.31;5095611;28;20097;-74
2022/06/12 11:38:06;;;;;;;7.60;4.15;;;;;;;25.02;75.18;94878.50;5088307;28;20135;-73
2022/06/12 11:40:51;;;;;;;6.47;3.28;;;;;;;24.98;73.99;94865.81;5040241;28;20044;-74
2022/06/12 11:43:33;;;;;;;3.30;3.00;;;;;;;25.14;72.09;94865.28;5086310;28;20051;-74
2022/06/12 11:46:26;;;;;;;6.40;3.53;;;;;;;25.32;70.93;94861.44;5085841;28;20035;-74
2022/06/12 11:49:30;;;;;;;4.93;3.35;;;;;;;25.31;70.76;94865.19;5076836;28;21517;-74
2022/06/12 11:52:00;;;;;;;;;;;;;;;25.51;69.64;94858.31;5066209;28;20044;-73
2022/06/12 11:54:34;;;;;;;5.25;3.38;;;;;;;25.79;68.87;94851.69;5049780;28;20451;-74
2022/06/12 11:57:11;;;;;;;4.25;3.53;;;;;;;26.18;67.49;94852.28;5067559;28;20524;-74
2022/06/12 11:59:57;;;;;;;4.38;3.58;;;;;;;26.49;66.54;94849.91;5081485;28;20135;-76
2022/06/12 12:02:50;;;;;;;3.50;3.20;;;;;;;26.37;65.65;94849.09;5081567;28;20054;-72